Time;durP1;ratioP1;P1;durP2;ratioP2;P2;SDS_P1;SDS_P2;PMS_P1;PMS_P2;Temp;Humidity;BMP_temperature;BMP_pressure;BME280_temperature;BME280_humidity;BME280_pressure;Samples;Min_cycle;Max_cycle;Signal;HPM_P1;HPM_P2
2020/12/10 00:02:11;;;;;;;;;;;;;;;7.01;68.51;100832.25;5097392;28;20040;-87
2020/12/10 00:04:37;;;;;;;47.00;22.88;;;;;;;7.47;67.71;100827.09;5096723;28;20365;-88
2020/12/10 00:07:03;;;;;;;44.85;23.83;;;;;;;7.14;68.21;100832.72;5096793;28;20075;-87
2020/12/10 00:09:28;;;;;;;45.75;23.02;;;;;;;7.01;68.79;100826.88;5100422;28;20040;-89
2020/12/10 00:11:54;;;;;;;47.35;24.10;;;;;;;6.81;68.89;100820.34;5097599;28;20092;-91
2020/12/10 00:14:19;;;;;;;42.58;22.77;;;;;;;6.45;70.21;100822.41;5097803;28;20101;-88
2020/12/10 00:16:48;;;;;;;42.75;24.10;;;;;;;7.17;67.99;100808.38;5097471;28;20028;-90
2020/12/10 00:19:14;;;;;;;46.33;23.90;;;;;;;6.68;69.50;100809.09;5096899;28;20031;-91
2020/12/10 00:21:40;;;;;;;44.40;22.45;;;;;;;6.91;69.27;100810.16;5100719;28;20032;-90
2020/12/10 00:24:05;;;;;;;46.67;24.80;;;;;;;6.61;69.62;100802.16;5098757;28;20042;-92
2020/12/10 00:26:31;;;;;;;47.95;23.13;;;;;;;6.32;70.87;100814.69;5096773;28;20032;-90
2020/12/10 00:28:56;;;;;;;;;;;;;;;6.35;70.38;100811.91;5092457;28;20075;-87
2020/12/10 00:31:23;;;;;;;43.25;21.48;;;;;;;7.01;68.23;100800.84;5100261;28;19932;-88
2020/12/10 00:33:48;;;;;;;44.22;22.77;;;;;;;6.84;68.43;100811.28;5115954;28;20040;-88
2020/12/10 00:36:14;;;;;;;46.60;23.48;;;;;;;6.78;68.77;100814.16;5098665;28;20038;-86
2020/12/10 00:38:40;;;;;;;47.47;23.30;;;;;;;6.36;70.60;100808.31;5100147;28;20035;-87
2020/12/10 00:41:05;;;;;;;51.78;23.48;;;;;;;7.29;67.33;100802.59;5100981;28;20043;-89
2020/12/10 00:43:31;;;;;;;;;;;;;;;6.86;68.19;100809.44;5101040;28;20084;-89
2020/12/10 00:46:08;;;;;;;43.35;21.33;;;;;;;6.44;69.86;100804.50;5100829;28;20348;-90
2020/12/10 00:48:34;;;;;;;43.03;22.25;;;;;;;6.55;69.08;100807.72;5100301;28;20035;-88
2020/12/10 00:51:00;;;;;;;;;;;;;;;6.97;68.32;100809.94;5101248;28;20123;-87
2020/12/10 00:53:27;;;;;;;39.55;20.63;;;;;;;7.47;66.48;100811.81;5119585;28;19919;-88
2020/12/10 00:55:56;;;;;;;37.63;19.70;;;;;;;6.95;67.84;100798.38;5101679;28;20067;-88
2020/12/10 00:58:22;;;;;;;42.60;21.95;;;;;;;7.01;67.31;100799.97;5101777;28;20031;-86
2020/12/10 01:00:48;;;;;;;39.63;21.63;;;;;;;6.59;69.00;100808.50;5102842;28;20040;-86
2020/12/10 01:03:24;;;;;;;44.70;20.70;;;;;;;6.66;68.94;100797.53;5119946;28;20035;-85
2020/12/10 01:05:49;;;;;;;48.20;21.47;;;;;;;7.69;66.41;100794.94;5101377;28;20027;-87
2020/12/10 01:08:15;;;;;;;45.20;23.08;;;;;;;6.71;68.20;100800.91;5117394;28;20326;-89
2020/12/10 01:10:40;;;;;;;;;;;;;;;7.62;66.66;100791.56;5118174;28;20039;-87
2020/12/10 01:13:06;;;;;;;38.75;20.35;;;;;;;7.05;67.20;100786.38;5099591;28;19938;-88
2020/12/10 01:15:32;;;;;;;41.22;21.65;;;;;;;6.72;69.26;100794.63;5099654;28;20036;-86
2020/12/10 01:17:57;;;;;;;41.22;21.65;;;;;;;7.21;67.52;100796.59;5118326;28;20039;-88
2020/12/10 01:20:24;;;;;;;42.75;21.05;;;;;;;7.04;68.02;100794.50;5098765;28;20027;-87
2020/12/10 01:22:49;;;;;;;44.20;21.00;;;;;;;6.77;68.93;100797.16;5098686;28;20485;-87
2020/12/10 01:25:15;;;;;;;43.78;22.17;;;;;;;6.80;68.65;100801.56;5115775;28;20038;-87
2020/12/10 01:27:40;;;;;;;41.22;20.85;;;;;;;6.67;68.66;100801.97;5115900;28;20062;-87
2020/12/10 01:30:06;;;;;;;39.22;22.90;;;;;;;6.70;69.76;100804.56;5117611;27;20061;-88
2020/12/10 01:32:31;;;;;;;;;;;;;;;7.08;68.12;100794.34;5107221;28;20423;-87
2020/12/10 01:34:57;;;;;;;35.95;21.15;;;;;;;7.12;67.53;100786.16;5096121;28;19920;-87
2020/12/10 01:37:23;;;;;;;38.85;19.63;;;;;;;7.26;67.39;100784.75;5096991;28;20541;-87
2020/12/10 01:39:48;;;;;;;38.42;19.88;;;;;;;7.58;66.51;100784.56;5095739;28;20039;-89
2020/12/10 01:42:14;;;;;;;43.08;21.50;;;;;;;7.10;67.78;100792.47;5095322;28;20039;-88
2020/12/10 01:44:40;;;;;;;39.42;20.60;;;;;;;6.69;69.07;100800.09;5096517;28;20036;-87
2020/12/10 01:47:06;;;;;;;41.70;20.80;;;;;;;7.00;67.76;100799.06;5098698;28;20040;-87
2020/12/10 01:49:38;;;;;;;40.15;20.85;;;;;;;6.71;68.57;100798.22;5099504;28;20039;-86
2020/12/10 01:52:06;;;;;;;43.58;20.55;;;;;;;7.10;67.62;100792.47;5097575;28;20401;-87
2020/12/10 01:54:33;;;;;;;37.72;20.08;;;;;;;6.92;68.39;100780.50;5098466;28;20032;-86
2020/12/10 01:56:59;;;;;;;34.22;19.50;;;;;;;6.55;68.91;100786.22;5098429;28;20032;-87
2020/12/10 01:59:24;;;;;;;39.53;19.20;;;;;;;6.91;68.26;100777.88;5099601;28;20036;-88
2020/12/10 02:01:50;;;;;;;33.47;19.02;;;;;;;6.74;68.85;100773.94;5097981;28;20513;-86
2020/12/10 02:04:26;;;;;;;;;;;;;;;7.03;67.42;100771.22;5099553;28;20055;-86
2020/12/10 02:06:52;;;;;;;36.03;18.33;;;;;;;6.84;67.40;100771.84;5099211;28;19912;-90
2020/12/10 02:09:17;;;;;;;28.02;17.33;;;;;;;7.39;65.74;100768.16;5098172;28;20040;-85
2020/12/10 02:11:43;;;;;;;27.23;16.40;;;;;;;6.85;66.87;100759.25;5099075;28;20036;-87
2020/12/10 02:14:08;;;;;;;;;;;;;;;7.02;66.11;100767.66;5098652;28;20115;-86
2020/12/10 02:16:36;;;;;;;30.52;16.73;;;;;;;7.06;65.81;100763.91;5098437;28;19948;-85
2020/12/10 02:19:01;;;;;;;30.40;17.42;;;;;;;6.84;66.31;100757.50;5098072;28;20068;-87
2020/12/10 02:21:27;;;;;;;29.17;17.13;;;;;;;7.16;66.03;100758.22;5097904;28;20066;-88
2020/12/10 02:23:56;;;;;;;28.83;17.23;;;;;;;6.87;66.13;100754.69;5089532;28;20111;-86
2020/12/10 02:26:23;;;;;;;26.55;16.65;;;;;;;6.73;66.28;100749.78;5081784;28;20032;-86
2020/12/10 02:28:49;;;;;;;34.38;18.10;;;;;;;6.67;66.67;100742.84;5081236;28;20028;-88
2020/12/10 02:31:23;;;;;;;29.80;16.23;;;;;;;6.71;67.22;100736.41;5081343;28;20039;-88
2020/12/10 02:33:50;;;;;;;27.85;17.33;;;;;;;6.58;66.69;100726.97;5081233;28;20024;-87
2020/12/10 02:36:15;;;;;;;32.22;18.20;;;;;;;6.23;68.06;100730.81;5081135;28;20097;-88
2020/12/10 02:38:40;;;;;;;29.40;17.75;;;;;;;6.51;67.18;100734.38;5080122;28;20341;-87
2020/12/10 02:41:06;;;;;;;29.23;17.52;;;;;;;6.51;66.39;100736.19;5080480;28;20028;-87
2020/12/10 02:43:32;;;;;;;33.13;19.58;;;;;;;6.05;68.68;100726.91;5097528;28;20046;-88
2020/12/10 02:45:58;;;;;;;29.38;16.15;;;;;;;5.84;69.32;100721.22;5079714;28;20046;-88
2020/12/10 02:48:23;;;;;;;29.05;16.70;;;;;;;6.02;68.39;100726.09;5079143;28;20135;-85
2020/12/10 02:50:50;;;;;;;29.20;16.77;;;;;;;6.31;67.24;100729.66;5079448;28;20032;-85
2020/12/10 02:53:16;;;;;;;29.75;17.77;;;;;;;6.29;66.61;100720.75;5079484;28;20035;-87
2020/12/10 02:55:41;;;;;;;29.95;17.27;;;;;;;5.91;67.97;100719.25;5079298;28;20028;-86
2020/12/10 02:58:06;;;;;;;30.38;17.08;;;;;;;6.16;67.58;100722.06;5079864;28;20531;-85
2020/12/10 03:00:32;;;;;;;31.90;17.90;;;;;;;6.30;67.07;100714.47;5101119;28;20032;-87
2020/12/10 03:02:57;;;;;;;30.85;17.85;;;;;;;6.53;65.86;100718.19;5103279;28;20064;-86
2020/12/10 03:05:22;;;;;;;33.83;18.55;;;;;;;5.86;68.52;100722.06;5086704;28;20123;-87
2020/12/10 03:07:48;;;;;;;;;;;;;;;5.68;69.38;100721.66;5104534;28;20040;-84
2020/12/10 03:10:13;;;;;;;27.70;16.08;;;;;;;6.47;67.21;100710.34;5104025;28;19979;-88
2020/12/10 03:12:38;;;;;;;28.17;15.95;;;;;;;6.52;66.41;100717.34;5069285;28;20028;-85
2020/12/10 03:15:04;;;;;;;31.40;17.45;;;;;;;6.21;67.62;100720.13;5103428;28;20040;-88
2020/12/10 03:17:29;;;;;;;;;;;;;;;6.64;66.33;100721.41;5086546;28;20036;-85
2020/12/10 03:19:55;;;;;;;29.73;16.58;;;;;;;6.55;66.13;100711.84;5104235;28;19919;-85
2020/12/10 03:22:21;;;;;;;29.25;15.65;;;;;;;6.36;66.65;100708.88;5085618;28;20210;-86
2020/12/10 03:24:47;;;;;;;22.92;13.57;;;;;;;6.32;66.37;100715.28;5104293;28;20051;-86
2020/12/10 03:27:12;;;;;;;;;;;;;;;6.83;65.92;100704.66;5085969;28;20074;-85
2020/12/10 03:29:38;;;;;;;25.35;14.45;;;;;;;6.47;66.69;100703.16;5103467;28;19918;-86
2020/12/10 03:32:03;;;;;;;22.70;14.10;;;;;;;7.13;64.70;100694.63;5085648;28;20481;-86
2020/12/10 03:34:29;;;;;;;23.60;13.88;;;;;;;6.34;66.61;100691.03;5085596;28;20039;-87
2020/12/10 03:36:57;;;;;;;26.85;14.80;;;;;;;6.95;65.72;100693.47;5085565;28;20032;-89
2020/12/10 03:39:24;;;;;;;22.80;12.98;;;;;;;6.90;64.96;100688.25;5085338;28;20027;-86
2020/12/10 03:41:51;;;;;;;22.92;12.82;;;;;;;6.68;65.11;100693.50;5103431;28;20102;-86
2020/12/10 03:44:16;;;;;;;;;;;;;;;6.57;65.95;100693.84;5085788;28;20071;-85
2020/12/10 03:46:42;;;;;;;21.45;11.98;;;;;;;6.66;65.47;100698.06;5084819;28;19916;-86
2020/12/10 03:49:08;;;;;;;24.42;12.38;;;;;;;6.39;67.51;100687.28;5085276;28;20461;-85
2020/12/10 03:51:34;;;;;;;21.92;11.95;;;;;;;6.48;66.26;100685.25;5084669;28;20038;-85
2020/12/10 03:54:00;;;;;;;21.60;11.75;;;;;;;6.76;64.73;100681.59;5084817;28;20044;-87
2020/12/10 03:56:27;;;;;;;19.27;11.27;;;;;;;6.14;67.20;100683.63;5085548;28;20043;-85
2020/12/10 03:58:52;;;;;;;19.00;10.80;;;;;;;5.95;68.45;100686.88;5084612;28;20093;-85
2020/12/10 04:01:17;;;;;;;19.17;11.50;;;;;;;5.99;67.65;100679.63;5085722;28;20040;-85
2020/12/10 04:03:43;;;;;;;19.17;11.75;;;;;;;6.76;65.69;100678.91;5083009;28;20028;-84
2020/12/10 04:06:09;;;;;;;21.90;11.75;;;;;;;6.37;66.47;100675.72;5083394;28;20048;-85
2020/12/10 04:08:34;;;;;;;21.95;12.27;;;;;;;6.39;66.38;100679.22;5102377;28;20032;-86
2020/12/10 04:11:00;;;;;;;20.38;11.32;;;;;;;6.26;67.10;100677.88;5083137;28;20036;-85
2020/12/10 04:13:25;;;;;;;24.88;12.43;;;;;;;6.10;67.62;100679.28;5084750;28;20032;-85
2020/12/10 04:15:50;;;;;;;24.08;13.00;;;;;;;6.59;65.64;100671.44;5101021;28;20040;-87
2020/12/10 04:18:16;;;;;;;;;;;;;;;6.00;67.88;100686.75;5101387;28;20111;-86
2020/12/10 04:20:41;;;;;;;24.55;13.00;;;;;;;5.64;68.91;100687.78;5082934;28;19916;-85
2020/12/10 04:23:06;;;;;;;;;;;;;;;6.43;66.74;100687.19;5105354;28;20048;-85
2020/12/10 04:25:32;;;;;;;22.80;13.68;;;;;;;5.84;67.90;100684.53;5119550;28;19911;-86
2020/12/10 04:27:57;;;;;;;23.65;13.68;;;;;;;5.70;68.29;100693.91;5120506;28;20127;-85
2020/12/10 04:30:23;;;;;;;24.70;13.45;;;;;;;5.79;69.06;100690.94;5119506;28;20031;-87
2020/12/10 04:32:48;;;;;;;23.45;13.65;;;;;;;5.99;67.58;100691.28;5120132;28;20054;-87
2020/12/10 04:35:14;;;;;;;25.52;13.20;;;;;;;5.44;68.99;100690.19;5119530;28;20042;-86
2020/12/10 04:37:41;;;;;;;23.30;14.88;;;;;;;5.81;68.60;100692.69;5120920;28;20032;-85
2020/12/10 04:40:07;;;;;;;25.58;13.88;;;;;;;5.49;69.30;100690.94;5120899;28;20362;-86
2020/12/10 04:42:32;;;;;;;;;;;;;;;5.39;69.31;100687.66;5119800;28;20040;-86
2020/12/10 04:44:58;;;;;;;23.48;12.55;;;;;;;5.65;68.40;100688.69;5119333;28;20360;-84
2020/12/10 04:47:23;;;;;;;25.75;13.70;;;;;;;5.39;69.21;100690.34;5119083;28;20032;-85
2020/12/10 04:49:54;;;;;;;22.17;12.57;;;;;;;5.67;68.71;100690.38;5118979;28;20059;-86
2020/12/10 04:52:20;;;;;;;23.80;13.25;;;;;;;5.37;69.83;100696.66;5119605;28;20027;-86
2020/12/10 04:54:45;;;;;;;;;;;;;;;5.70;68.02;100683.19;5119247;28;20047;-86
2020/12/10 04:57:13;;;;;;;25.48;13.43;;;;;;;5.99;67.67;100683.22;5119524;28;19919;-88
2020/12/10 04:59:39;;;;;;;26.98;13.60;;;;;;;5.58;67.79;100687.97;5102116;28;20394;-87
2020/12/10 05:02:13;;;;;;;23.65;13.40;;;;;;;5.73;68.20;100686.66;5119978;28;20027;-86
2020/12/10 05:04:40;;;;;;;25.30;12.85;;;;;;;5.72;67.85;100692.94;5120741;28;20111;-86
2020/12/10 05:07:05;;;;;;;21.48;12.63;;;;;;;5.45;68.13;100698.19;5119303;28;20396;-87
2020/12/10 05:09:31;;;;;;;26.42;13.77;;;;;;;5.60;68.66;100694.19;5108698;28;20034;-86
2020/12/10 05:11:56;;;;;;;25.60;13.18;;;;;;;5.25;69.47;100695.19;5115432;28;20114;-87
2020/12/10 05:14:22;;;;;;;23.35;13.27;;;;;;;5.95;67.08;100700.31;5118664;28;20043;-87
2020/12/10 05:17:09;;;;;;;29.58;14.60;;;;;;;5.51;68.86;100702.53;5118931;28;20093;-88
2020/12/10 05:19:35;;;;;;;30.02;15.25;;;;;;;5.54;68.98;100707.78;5119168;28;20500;-90
2020/12/10 05:22:02;;;;;;;26.50;15.23;;;;;;;5.42;69.07;100708.13;5118620;28;20019;-88
2020/12/10 05:24:27;;;;;;;30.73;14.73;;;;;;;5.27;68.98;100707.66;5118420;28;20058;-85
2020/12/10 05:27:16;;;;;;;34.42;16.60;;;;;;;5.33;68.92;100710.16;5119475;28;20027;-87
2020/12/10 05:29:42;;;;;;;29.77;16.42;;;;;;;5.26;68.28;100711.25;5116653;28;20134;-86
2020/12/10 05:32:08;;;;;;;37.30;18.48;;;;;;;5.33;68.17;100718.22;5118030;28;20485;-87
2020/12/10 05:34:33;;;;;;;;;;;;;;;5.29;68.97;100719.22;5117298;28;20039;-85
2020/12/10 05:36:59;;;;;;;29.77;15.80;;;;;;;5.65;67.08;100716.41;5116741;28;19911;-86
2020/12/10 05:39:25;;;;;;;30.90;17.17;;;;;;;5.17;68.28;100711.50;5115970;28;20027;-85
2020/12/10 05:41:54;;;;;;;31.08;15.20;;;;;;;5.26;68.56;100705.88;5115769;28;20118;-85
2020/12/10 05:44:22;;;;;;;29.83;15.70;;;;;;;5.33;67.51;100711.97;5117452;28;20039;-86
2020/12/10 05:47:01;;;;;;;30.17;16.52;;;;;;;5.00;68.34;100714.66;5117594;28;20040;-86
2020/12/10 05:49:27;;;;;;;28.83;15.80;;;;;;;4.76;69.38;100710.81;5117380;28;20534;-88
2020/12/10 05:51:58;;;;;;;29.27;14.77;;;;;;;4.84;68.66;100719.53;5118012;28;20059;-86
2020/12/10 05:54:25;;;;;;;31.55;16.50;;;;;;;4.76;68.74;100711.69;5119226;28;20103;-87
2020/12/10 05:56:55;;;;;;;30.27;16.30;;;;;;;4.94;68.63;100723.72;5119469;28;20035;-87
2020/12/10 05:59:26;;;;;;;31.15;16.75;;;;;;;4.79;69.05;100727.69;5120579;28;20028;-84
2020/12/10 06:01:55;;;;;;;30.20;16.80;;;;;;;5.21;67.39;100725.69;5120650;28;20603;-86
2020/12/10 06:04:22;;;;;;;32.38;16.80;;;;;;;4.67;68.61;100725.31;5120603;28;20031;-86
2020/12/10 06:06:50;;;;;;;27.38;15.85;;;;;;;4.61;68.58;100725.47;5119415;28;20127;-85
2020/12/10 06:09:18;;;;;;;30.02;15.55;;;;;;;4.57;68.95;100731.81;5104934;28;20090;-86
2020/12/10 06:11:45;;;;;;;31.45;15.60;;;;;;;4.59;69.18;100735.38;5098370;28;20040;-85
2020/12/10 06:14:10;;;;;;;32.97;15.52;;;;;;;4.34;69.27;100735.94;5094086;28;20063;-84
2020/12/10 06:16:36;;;;;;;30.63;16.67;;;;;;;4.66;68.30;100736.06;5111314;28;20489;-88
2020/12/10 06:19:05;;;;;;;;;;;;;;;4.74;68.32;100739.44;5102936;28;20024;-86
2020/12/10 06:21:43;;;;;;;28.70;16.02;;;;;;;4.78;68.13;100730.41;5083852;28;19958;-86
2020/12/10 06:24:26;;;;;;;29.35;16.48;;;;;;;4.32;68.79;100736.88;5087277;28;20489;-85
2020/12/10 06:26:52;;;;;;;31.77;15.93;;;;;;;4.07;69.95;100748.16;5094114;28;20035;-88
2020/12/10 06:29:20;;;;;;;31.60;15.10;;;;;;;4.07;69.42;100746.34;5096470;28;20489;-86
2020/12/10 06:32:01;;;;;;;31.20;17.08;;;;;;;4.40;68.23;100740.28;5097051;28;20035;-89
2020/12/10 06:34:46;;;;;;;31.05;15.90;;;;;;;4.50;68.14;100736.47;5100290;28;20415;-88
2020/12/10 06:37:15;;;;;;;30.70;17.02;;;;;;;4.75;68.03;100738.53;5102783;28;20028;-86
2020/12/10 06:39:40;;;;;;;29.52;16.13;;;;;;;4.57;67.50;100743.41;5103946;28;20101;-87
2020/12/10 06:42:06;;;;;;;28.85;15.10;;;;;;;4.85;66.34;100741.88;5100977;28;20465;-84
2020/12/10 06:44:35;;;;;;;30.25;15.85;;;;;;;4.42;67.62;100750.03;5081835;28;20534;-83
2020/12/10 06:47:01;;;;;;;33.17;16.63;;;;;;;4.55;66.61;100742.56;5098603;28;20035;-85
2020/12/10 06:49:31;;;;;;;32.15;16.60;;;;;;;4.10;69.45;100741.88;5116724;28;20040;-84
2020/12/10 06:52:11;;;;;;;30.00;15.85;;;;;;;4.43;67.61;100753.59;5116925;28;20028;-86
2020/12/10 06:55:06;;;;;;;36.50;16.67;;;;;;;4.38;68.10;100752.84;5117089;28;20035;-83
2020/12/10 06:58:12;;;;;;;33.38;16.98;;;;;;;4.15;69.18;100751.56;5097991;28;20035;-84
2020/12/10 07:00:42;;;;;;;31.55;16.02;;;;;;;4.13;68.83;100749.81;5117035;28;20108;-86
2020/12/10 07:03:10;;;;;;;30.50;16.52;;;;;;;3.73;69.55;100749.78;5098577;28;20036;-84
2020/12/10 07:05:37;;;;;;;31.70;16.27;;;;;;;4.01;68.74;100754.53;5097294;28;20036;-84
2020/12/10 07:08:09;;;;;;;30.60;16.13;;;;;;;3.90;69.03;100757.44;5096524;28;20035;-84
2020/12/10 07:10:38;;;;;;;31.67;16.38;;;;;;;4.76;67.08;100738.47;5112980;28;20047;-84
2020/12/10 07:13:04;;;;;;;26.75;15.82;;;;;;;4.44;67.61;100748.19;5096714;28;20174;-85
2020/12/10 07:15:29;;;;;;;27.88;15.30;;;;;;;4.36;66.95;100744.84;5096890;28;20463;-85
2020/12/10 07:17:55;;;;;;;29.38;16.05;;;;;;;3.86;68.76;100757.53;5096989;28;20027;-85
2020/12/10 07:20:21;;;;;;;26.27;14.95;;;;;;;4.33;67.14;100750.22;5097156;28;20062;-86
2020/12/10 07:22:47;;;;;;;30.20;14.52;;;;;;;3.73;68.81;100757.81;5095686;28;20063;-85
2020/12/10 07:25:12;;;;;;;27.38;14.18;;;;;;;3.97;68.42;100759.97;5077706;28;20063;-85
2020/12/10 07:27:42;;;;;;;26.00;14.38;;;;;;;4.07;68.57;100761.56;5077807;28;20035;-84
2020/12/10 07:30:11;;;;;;;28.35;14.30;;;;;;;4.06;68.75;100752.66;5077805;28;20032;-85
2020/12/10 07:32:38;;;;;;;26.35;15.90;;;;;;;4.02;68.58;100766.13;5096099;28;20033;-84
2020/12/10 07:35:04;;;;;;;29.02;14.18;;;;;;;4.16;68.18;100763.16;5077666;28;20028;-85
2020/12/10 07:37:31;;;;;;;26.50;14.20;;;;;;;4.42;66.92;100754.50;5095848;28;20036;-86
2020/12/10 07:40:18;;;;;;;27.50;13.80;;;;;;;3.88;68.93;100756.59;5077711;28;20054;-86
2020/12/10 07:42:44;;;;;;;;;;;;;;;3.68;69.58;100769.50;5078175;28;20036;-86
2020/12/10 07:45:11;;;;;;;25.52;13.80;;;;;;;3.90;68.98;100762.78;5077960;28;20011;-87
2020/12/10 07:47:36;;;;;;;22.88;12.70;;;;;;;4.16;68.57;100765.81;5078363;28;20485;-87
2020/12/10 07:50:07;;;;;;;25.20;13.55;;;;;;;4.98;65.60;100754.00;5078116;28;20047;-89
2020/12/10 07:52:32;;;;;;;27.70;14.95;;;;;;;4.70;66.69;100749.34;5078154;28;20074;-86
2020/12/10 07:54:59;;;;;;;26.08;14.10;;;;;;;4.65;66.65;100742.34;5078075;28;20036;-86
2020/12/10 07:57:41;;;;;;;25.10;13.30;;;;;;;5.44;64.88;100746.53;5095122;28;20028;-87
2020/12/10 08:00:18;;;;;;;24.70;13.18;;;;;;;4.58;66.79;100755.91;5078264;28;20036;-90
2020/12/10 08:03:16;;;;;;;27.20;13.40;;;;;;;4.13;68.00;100758.72;5078314;28;20064;-91
2020/12/10 08:05:57;;;;;;;25.08;14.27;;;;;;;4.71;66.50;100750.22;5077947;28;20122;-91
2020/12/10 08:08:39;;;;;;;26.73;14.38;;;;;;;4.86;66.52;100749.88;5095023;28;20047;-94
2020/12/10 08:11:08;;;;;;;24.77;13.45;;;;;;;5.24;64.94;100756.00;5094582;28;20123;-88
2020/12/10 08:13:33;;;;;;;21.83;13.25;;;;;;;4.91;66.15;100758.66;5076971;28;20089;-86
2020/12/10 08:16:08;;;;;;;28.75;12.98;;;;;;;4.58;66.62;100758.56;5076297;28;20040;-88
2020/12/10 08:18:34;;;;;;;26.42;13.40;;;;;;;4.91;65.80;100761.34;5077496;28;20036;-87
2020/12/10 08:21:04;;;;;;;25.83;13.52;;;;;;;4.71;65.91;100766.31;5076044;28;20130;-86
2020/12/10 08:23:42;;;;;;;24.42;13.73;;;;;;;4.85;65.81;100764.19;5090151;28;20520;-86
2020/12/10 08:26:09;;;;;;;27.55;13.10;;;;;;;4.82;65.99;100768.75;5066462;28;20020;-91
2020/12/10 08:28:55;;;;;;;22.15;12.02;;;;;;;4.24;67.55;100770.09;5059922;28;20457;-87
2020/12/10 08:31:23;;;;;;;25.25;13.00;;;;;;;4.85;65.83;100760.63;5057766;28;20504;-88
2020/12/10 08:33:48;;;;;;;23.50;13.40;;;;;;;4.31;66.98;100773.50;5057113;28;20029;-87
2020/12/10 08:36:28;;;;;;;21.38;12.35;;;;;;;4.49;66.57;100764.16;5065306;28;20093;-88
2020/12/10 08:38:55;;;;;;;26.15;13.90;;;;;;;4.88;65.29;100764.09;5069678;28;20032;-87
2020/12/10 08:41:28;;;;;;;24.83;13.70;;;;;;;5.58;63.89;100765.78;5059923;28;20032;-89
2020/12/10 08:44:07;;;;;;;26.17;13.85;;;;;;;4.81;65.40;100764.28;5057189;28;20428;-88
2020/12/10 08:46:34;;;;;;;23.55;13.13;;;;;;;4.48;66.72;100770.41;5056596;28;20067;-83
2020/12/10 08:49:20;;;;;;;26.83;14.32;;;;;;;4.83;64.84;100763.34;5077368;28;20028;-88
2020/12/10 08:51:48;;;;;;;25.45;13.40;;;;;;;5.15;64.67;100767.00;5088433;28;20041;-89
2020/12/10 08:54:17;;;;;;;26.55;14.68;;;;;;;4.72;65.78;100768.06;5062541;28;20052;-88
2020/12/10 08:56:43;;;;;;;20.85;12.30;;;;;;;4.60;65.91;100770.16;5074934;28;20156;-87
2020/12/10 08:59:08;;;;;;;23.30;13.02;;;;;;;3.87;67.47;100778.91;5094236;28;20512;-87
2020/12/10 09:01:35;;;;;;;30.55;14.68;;;;;;;4.29;66.90;100770.00;5076638;28;20024;-86
2020/12/10 09:04:00;;;;;;;30.30;13.85;;;;;;;4.35;66.72;100775.19;5076280;28;20453;-82
2020/12/10 09:06:36;;;;;;;28.13;15.00;;;;;;;4.32;66.18;100772.59;5076485;28;20157;-90
2020/12/10 09:09:26;;;;;;;29.50;14.73;;;;;;;5.05;64.38;100773.50;5094263;28;20039;-91
2020/12/10 09:11:51;;;;;;;25.30;14.63;;;;;;;4.59;66.17;100773.75;5078227;28;20038;-89
2020/12/10 09:14:30;;;;;;;24.83;14.43;;;;;;;4.86;64.76;100771.31;5076159;28;20040;-90
2020/12/10 09:16:55;;;;;;;26.80;13.15;;;;;;;4.81;65.01;100773.19;5069808;28;20512;-88
2020/12/10 09:19:20;;;;;;;22.92;13.05;;;;;;;4.25;66.74;100763.81;5093461;28;20036;-86
2020/12/10 09:21:46;;;;;;;20.38;12.30;;;;;;;4.02;66.67;100783.06;5077154;28;20465;-86
2020/12/10 09:24:11;;;;;;;23.83;12.73;;;;;;;4.59;66.01;100773.75;5075492;28;20066;-85
2020/12/10 09:26:38;;;;;;;23.73;12.85;;;;;;;4.10;67.16;100784.69;5093056;28;20044;-88
2020/12/10 09:29:04;;;;;;;24.58;13.27;;;;;;;4.25;67.11;100779.00;5064748;28;20024;-88
2020/12/10 09:31:29;;;;;;;23.33;12.45;;;;;;;4.57;65.54;100775.56;5076207;28;20043;-87
2020/12/10 09:33:54;;;;;;;;;;;;;;;3.87;67.95;100784.28;5073010;28;20036;-86
2020/12/10 09:36:20;;;;;;;25.27;12.82;;;;;;;4.65;65.70;100782.53;5068011;28;20352;-88
2020/12/10 09:38:45;;;;;;;;;;;;;;;4.74;65.06;100776.94;5073564;28;20040;-87
2020/12/10 09:41:10;;;;;;;22.75;12.40;;;;;;;4.97;64.53;100776.41;5055636;28;19912;-87
2020/12/10 09:43:36;;;;;;;;;;;;;;;4.91;64.60;100774.75;5073466;28;20087;-86
2020/12/10 09:46:09;;;;;;;26.70;12.65;;;;;;;4.25;66.43;100771.84;5055240;28;20465;-87
2020/12/10 09:48:34;;;;;;;23.45;12.38;;;;;;;4.35;66.14;100779.66;5057557;28;20063;-87
2020/12/10 09:51:00;;;;;;;21.88;12.73;;;;;;;4.16;66.79;100782.75;5093030;28;20437;-87
2020/12/10 09:53:39;;;;;;;21.33;12.15;;;;;;;3.99;67.75;100772.44;5074851;28;20107;-88
2020/12/10 09:58:42;;;;;;;18.90;11.65;;;;;;;4.89;64.34;100763.19;5098362;28;20122;-87
2020/12/10 10:01:10;;;;;;;24.92;13.15;;;;;;;4.64;64.37;100767.41;5084221;28;20074;-85
2020/12/10 10:03:37;;;;;;;21.73;12.95;;;;;;;4.26;66.11;100770.94;5073381;28;20024;-87
2020/12/10 10:06:03;;;;;;;24.08;12.82;;;;;;;4.50;65.85;100765.94;5095875;28;20036;-86
2020/12/10 10:08:31;;;;;;;;;;;;;;;5.14;63.82;100767.91;5079575;28;20086;-85
2020/12/10 10:11:02;;;;;;;29.10;12.00;;;;;;;4.91;65.29;100769.38;5102426;28;19912;-84
2020/12/10 10:13:31;;;;;;;22.95;12.73;;;;;;;4.32;66.45;100772.59;5084107;28;20043;-86
2020/12/10 10:15:56;;;;;;;22.33;12.45;;;;;;;4.49;65.95;100776.69;5065771;28;20122;-88
2020/12/10 10:18:22;;;;;;;20.17;12.00;;;;;;;4.44;66.05;100771.44;5092747;28;20497;-86
2020/12/10 10:20:48;;;;;;;23.40;12.75;;;;;;;4.83;65.45;100766.03;5104854;28;20036;-85
2020/12/10 10:23:13;;;;;;;25.33;12.23;;;;;;;4.80;64.94;100774.13;5109703;28;20395;-85
2020/12/10 10:25:39;;;;;;;28.45;13.10;;;;;;;4.72;65.68;100776.13;5106848;28;20034;-85
2020/12/10 10:28:04;;;;;;;21.40;11.82;;;;;;;4.99;64.51;100771.88;5125034;28;20040;-85
2020/12/10 10:30:30;;;;;;;20.23;12.45;;;;;;;4.99;65.28;100773.66;5105746;28;20047;-86
2020/12/10 10:32:56;;;;;;;22.15;13.20;;;;;;;5.35;63.60;100769.13;5105476;28;20031;-86
2020/12/10 10:35:24;;;;;;;20.40;12.18;;;;;;;5.36;62.92;100770.00;5105044;28;20020;-85
2020/12/10 10:37:50;;;;;;;23.23;11.32;;;;;;;5.09;64.71;100761.78;5106916;28;20159;-84
2020/12/10 10:40:15;;;;;;;21.48;12.05;;;;;;;5.71;63.19;100755.59;5090020;28;20028;-87
2020/12/10 10:42:41;;;;;;;28.10;11.98;;;;;;;5.12;65.17;100761.72;5083134;28;20542;-85
2020/12/10 10:45:07;;;;;;;27.00;13.73;;;;;;;5.42;63.85;100767.16;5083807;28;20044;-84
2020/12/10 10:47:32;;;;;;;23.50;13.02;;;;;;;4.86;65.16;100765.94;5086187;28;20039;-85
2020/12/10 10:49:58;;;;;;;22.08;11.25;;;;;;;5.77;63.21;100755.44;5085438;28;20104;-86
2020/12/10 10:52:24;;;;;;;58.10;24.15;;;;;;;6.29;60.86;100755.66;5102825;28;20047;-85
2020/12/10 10:54:50;;;;;;;49.25;21.05;;;;;;;6.51;61.40;100752.31;5084435;28;20131;-85
2020/12/10 10:57:15;;;;;;;22.92;11.60;;;;;;;5.74;62.59;100757.34;5102396;28;20082;-84
2020/12/10 10:59:40;;;;;;;;;;;;;;;5.85;61.69;100763.25;5085056;28;20028;-86
2020/12/10 11:02:06;;;;;;;20.15;11.27;;;;;;;5.21;63.84;100758.78;5084421;28;20480;-85
2020/12/10 11:04:31;;;;;;;;;;;;;;;5.91;62.87;100749.63;5085526;28;20043;-87
2020/12/10 11:06:59;;;;;;;20.05;11.63;;;;;;;5.92;62.32;100747.81;5103566;28;20411;-85
2020/12/10 11:09:25;;;;;;;18.50;10.82;;;;;;;6.12;62.31;100744.59;5087339;28;20375;-84
2020/12/10 11:11:54;;;;;;;18.67;11.18;;;;;;;5.96;62.51;100739.66;5087928;28;20043;-88
2020/12/10 11:14:35;;;;;;;;;;;;;;;;;;;;;
2020/12/10 11:17:06;;;;;;;24.00;11.73;;;;;;;6.18;62.10;100739.03;5109485;28;20080;-84
2020/12/10 11:19:32;;;;;;;19.20;11.73;;;;;;;6.09;62.45;100734.81;5100909;28;20081;-85
2020/12/10 11:21:57;;;;;;;19.30;12.43;;;;;;;6.02;62.62;100736.81;5108081;28;20028;-85
2020/12/10 11:24:28;;;;;;;17.77;11.60;;;;;;;6.61;61.05;100729.56;5126262;28;20053;-85
2020/12/10 11:26:55;;;;;;;21.50;11.85;;;;;;;6.90;60.22;100731.28;5107457;28;20100;-85
2020/12/10 11:29:20;;;;;;;20.08;11.85;;;;;;;5.90;61.52;100738.94;5090146;28;20051;-85
2020/12/10 11:31:46;;;;;;;25.65;12.57;;;;;;;5.44;63.36;100736.69;5107121;28;20031;-84
2020/12/10 11:34:11;;;;;;;24.58;11.93;;;;;;;5.48;63.57;100732.09;5104100;28;20059;-84